createdAt,value
2023-04-02T00:01:47.554Z,0.38
2023-04-02T00:06:54.224Z,1.25
2023-04-02T00:11:56.554Z,0.30
2023-04-02T00:17:01.248Z,0.70
2023-04-02T00:22:07.637Z,0.73
2023-04-02T00:27:15.440Z,0.20
2023-04-02T00:32:37.379Z,1.48
2023-04-02T00:37:42.149Z,2.38
2023-04-02T00:42:44.809Z,0.63
2023-04-02T00:47:46.996Z,0.40
2023-04-02T00:52:52.481Z,0.57
2023-04-02T00:57:56.109Z,0.80
2023-04-02T01:03:16.478Z,0.17
2023-04-02T01:08:52.367Z,0.55
2023-04-02T01:14:23.468Z,0.20
2023-04-02T01:19:46.516Z,0.60
2023-04-02T01:24:49.086Z,2.53
2023-04-02T01:29:56.739Z,0.52
2023-04-02T01:34:58.795Z,0.50
2023-04-02T01:40:14.451Z,0.30
2023-04-02T01:45:19.711Z,0.32
2023-04-02T01:50:31.918Z,0.30
2023-04-02T01:55:37.752Z,0.85
2023-04-02T02:00:53.339Z,1.73
2023-04-02T02:05:56.097Z,1.23
2023-04-02T02:10:59.329Z,0.47
2023-04-02T02:16:03.268Z,0.93
2023-04-02T02:21:08.217Z,0.32
2023-04-02T02:26:13.206Z,1.20
2023-04-02T02:31:22.815Z,0.30
2023-04-02T02:36:50.786Z,0.57
2023-04-02T02:41:57.373Z,0.43
2023-04-02T02:47:04.755Z,0.82
2023-04-02T02:52:12.999Z,0.90
2023-04-02T02:57:26.280Z,1.27
2023-04-02T03:02:29.511Z,1.08
2023-04-02T03:07:33.299Z,0.43
2023-04-02T03:12:43.630Z,0.30
2023-04-02T03:18:00.674Z,0.20
2023-04-02T03:23:05.752Z,0.40
2023-04-02T03:28:19.636Z,0.73
2023-04-02T03:33:27.670Z,0.77
2023-04-02T03:44:00.894Z,0.77
2023-04-02T03:49:09.704Z,0.32
2023-04-02T03:54:15.636Z,1.70
2023-04-02T03:59:32.872Z,0.45
2023-04-02T04:04:39.775Z,0.10
2023-04-02T04:09:46.903Z,0.82
2023-04-02T04:15:16.958Z,0.40
2023-04-02T04:20:26.013Z,2.15
2023-04-02T04:25:30.673Z,1.60
2023-04-02T04:30:50.945Z,0.65
2023-04-02T04:35:59.927Z,0.32
2023-04-02T04:41:16.427Z,2.15
2023-04-02T04:46:31.015Z,0.55
2023-04-02T04:51:47.676Z,4.22
2023-04-02T04:56:55.614Z,1.02
2023-04-02T05:02:07.662Z,0.60
2023-04-02T05:07:17.654Z,1.75
2023-04-02T05:12:40.422Z,1.40
2023-04-02T05:18:01.874Z,1.35
2023-04-02T05:23:13.663Z,2.03
2023-04-02T05:28:22.377Z,1.67
2023-04-02T05:33:32.493Z,1.27
2023-04-02T05:38:44.989Z,1.88
2023-04-02T05:43:51.367Z,0.80
2023-04-02T05:48:58.449Z,1.33
2023-04-02T05:54:03.737Z,0.77
2023-04-02T05:59:19.591Z,2.65
2023-04-02T06:04:41.490Z,3.03
2023-04-02T06:09:50.652Z,0.88
2023-04-02T06:14:52.829Z,1.35
2023-04-02T06:19:59.389Z,1.77
2023-04-02T06:25:09.387Z,1.58
2023-04-02T06:30:24.182Z,0.85
2023-04-02T06:35:27.814Z,3.35
2023-04-02T06:40:58.952Z,1.95
2023-04-02T06:46:32.419Z,1.20
2023-04-02T06:51:40.881Z,1.20
2023-04-02T06:56:52.517Z,1.55
2023-04-02T07:02:06.634Z,1.63
2023-04-02T07:07:08.980Z,2.58
2023-04-02T07:12:14.965Z,1.35
2023-04-02T07:17:19.726Z,2.22
2023-04-02T07:22:22.207Z,1.20
2023-04-02T07:27:30.778Z,2.72
2023-04-02T07:32:32.443Z,1.85
2023-04-02T07:37:34.027Z,2.10
2023-04-02T07:42:35.760Z,1.13
2023-04-02T07:47:37.384Z,1.17
2023-04-02T07:52:43.021Z,0.95
2023-04-02T07:57:49.348Z,0.80
2023-04-02T08:02:51.802Z,1.00
2023-04-02T08:07:55.561Z,1.88
2023-04-02T08:12:57.279Z,1.55
2023-04-02T08:17:58.982Z,1.15
2023-04-02T08:23:01.317Z,3.47
2023-04-02T08:28:03.208Z,0.60
2023-04-02T08:33:14.509Z,2.22
2023-04-02T08:38:18.871Z,2.45
2023-04-02T08:43:37.491Z,1.80
2023-04-02T08:48:43.940Z,1.95
2023-04-02T08:53:46.530Z,1.55
2023-04-02T08:58:55.994Z,4.03
2023-04-02T09:03:58.859Z,1.10
2023-04-02T09:09:01.161Z,1.92
2023-04-02T09:14:09.189Z,2.53
2023-04-02T09:19:21.838Z,1.77
2023-04-02T09:24:23.538Z,1.67
2023-04-02T09:29:42.834Z,0.90
2023-04-02T09:34:44.497Z,1.88
2023-04-02T09:39:46.275Z,0.88
2023-04-02T09:44:47.904Z,2.20
2023-04-02T09:49:49.537Z,1.20
2023-04-02T09:55:11.885Z,1.15
2023-04-02T10:00:25.913Z,0.98
2023-04-02T10:05:40.598Z,2.20
2023-04-02T10:10:46.793Z,1.42
2023-04-02T10:16:07.204Z,0.60
2023-04-02T10:21:12.923Z,0.28
2023-04-02T10:26:17.520Z,0.52
2023-04-02T10:31:27.725Z,0.40
2023-04-02T10:36:48.646Z,1.80
2023-04-02T10:41:57.673Z,1.23
2023-04-02T10:47:04.089Z,1.60
2023-04-02T10:52:24.091Z,1.35
2023-04-02T10:57:34.930Z,0.55
2023-04-02T11:02:52.105Z,0.93
2023-04-02T11:07:59.610Z,0.45
2023-04-02T11:13:22.831Z,0.98
2023-04-02T11:18:29.526Z,0.40
2023-04-02T11:23:35.082Z,0.40
2023-04-02T11:28:36.763Z,0.57
2023-04-02T11:33:44.716Z,2.20
2023-04-02T11:38:52.392Z,4.68
2023-04-02T11:44:01.307Z,6.40
2023-04-02T11:49:33.102Z,5.60
2023-04-02T11:54:38.310Z,4.88
2023-04-02T11:59:50.695Z,4.57
2023-04-02T12:05:19.341Z,5.00
2023-04-02T12:10:32.307Z,7.33
2023-04-02T12:15:40.085Z,7.78
2023-04-02T12:20:47.210Z,5.38
2023-04-02T12:26:06.450Z,4.40
2023-04-02T12:36:16.070Z,6.38
2023-04-02T12:41:30.010Z,8.05
2023-04-02T12:46:34.045Z,1.70
2023-04-02T12:51:36.911Z,2.65
2023-04-02T12:56:38.536Z,2.08
2023-04-02T13:01:56.246Z,2.33
2023-04-02T13:06:58.467Z,4.32
2023-04-02T13:12:01.068Z,2.15
2023-04-02T13:17:02.727Z,2.17
2023-04-02T13:22:31.685Z,4.13
2023-04-02T13:27:33.323Z,5.40
2023-04-02T13:32:34.967Z,3.15
2023-04-02T13:37:36.614Z,2.17
2023-04-02T13:42:38.890Z,2.65
2023-04-02T13:47:41.330Z,2.60
2023-04-02T13:52:43.222Z,2.03
2023-04-02T13:57:45.612Z,2.08
2023-04-02T14:02:53.831Z,2.72
2023-04-02T14:08:46.175Z,2.27
2023-04-02T14:14:03.037Z,3.22
2023-04-02T14:19:10.961Z,3.78
2023-04-02T14:24:44.635Z,3.77
2023-04-02T14:30:04.461Z,3.85
2023-04-02T14:35:31.542Z,4.63
2023-04-02T14:40:46.478Z,3.70
2023-04-02T14:45:51.693Z,4.32
2023-04-02T14:51:18.158Z,3.45
2023-04-02T14:56:23.613Z,3.28
2023-04-02T15:01:31.553Z,3.20
2023-04-02T15:06:40.521Z,4.63
2023-04-02T15:16:48.311Z,5.60
2023-04-02T15:22:09.438Z,6.35
2023-04-02T15:27:29.760Z,6.18
2023-04-02T15:32:34.547Z,9.63
2023-04-02T15:37:55.274Z,5.88
2023-04-02T15:43:04.721Z,17.45
2023-04-02T15:48:24.206Z,21.30
2023-04-02T15:53:43.650Z,7.70
2023-04-02T15:59:25.511Z,7.75
2023-04-02T16:04:33.182Z,6.15
2023-04-02T16:10:06.977Z,6.38
2023-04-02T16:15:18.699Z,9.40
2023-04-02T16:20:36.982Z,5.55
2023-04-02T16:25:56.371Z,6.87
2023-04-02T16:36:14.360Z,9.27
2023-04-02T16:41:34.620Z,10.45
2023-04-02T16:47:13.783Z,8.55
2023-04-02T16:52:37.391Z,7.50
2023-04-02T16:58:06.903Z,7.75
2023-04-02T17:03:25.452Z,8.05
2023-04-02T17:08:32.923Z,7.37
2023-04-02T17:13:47.301Z,8.27
2023-04-02T17:18:52.454Z,5.82
2023-04-02T17:24:05.606Z,6.28
2023-04-02T17:29:09.701Z,7.03
2023-04-02T17:34:17.051Z,6.20
2023-04-02T17:39:42.589Z,7.13
2023-04-02T17:44:56.252Z,6.13
2023-04-02T17:50:30.400Z,8.00
2023-04-02T17:55:53.358Z,8.07
2023-04-02T18:01:14.487Z,6.70
2023-04-02T18:06:25.384Z,5.57
2023-04-02T18:11:55.321Z,6.15
2023-04-02T18:17:26.610Z,5.07
2023-04-02T18:23:05.303Z,4.50
2023-04-02T18:28:17.828Z,5.30
2023-04-02T18:33:56.857Z,4.35
2023-04-02T18:39:18.645Z,6.37
2023-04-02T18:44:50.849Z,5.43
2023-04-02T18:50:15.793Z,5.43
2023-04-02T18:55:21.716Z,5.22
2023-04-02T19:00:29.746Z,4.70
2023-04-02T19:05:51.400Z,6.10
2023-04-02T19:11:08.643Z,4.57
2023-04-02T19:16:22.251Z,5.25
2023-04-02T19:21:33.019Z,6.10
2023-04-02T19:27:27.841Z,4.95
2023-04-02T19:32:50.630Z,5.72
2023-04-02T19:38:19.912Z,5.82
2023-04-02T19:43:21.848Z,6.03
2023-04-02T19:48:27.020Z,4.70
2023-04-02T19:53:28.932Z,6.53
2023-04-02T19:58:33.360Z,5.55
2023-04-02T20:03:35.402Z,4.68
2023-04-02T20:08:38.388Z,6.50
2023-04-02T20:13:40.078Z,5.63
2023-04-02T20:18:41.732Z,5.13
2023-04-02T20:23:43.331Z,5.38
2023-04-02T20:28:44.958Z,6.60
2023-04-02T20:33:47.883Z,5.70
2023-04-02T20:38:51.408Z,5.60
2023-04-02T20:43:53.661Z,6.53
2023-04-02T20:48:55.482Z,4.53
2023-04-02T20:53:58.476Z,4.65
2023-04-02T20:59:00.353Z,5.50
2023-04-02T21:04:03.559Z,4.35
2023-04-02T21:09:08.711Z,5.15
2023-04-02T21:14:11.477Z,4.97
2023-04-02T21:19:13.280Z,5.90
2023-04-02T21:24:14.919Z,6.70
2023-04-02T21:29:17.126Z,7.55
2023-04-02T21:34:18.727Z,6.53
2023-04-02T21:39:23.285Z,5.45
2023-04-02T21:44:25.140Z,5.78
2023-04-02T21:49:27.855Z,5.63
2023-04-02T21:54:30.574Z,4.13
2023-04-02T21:59:32.182Z,7.03
2023-04-02T22:04:33.893Z,5.22
2023-04-02T22:09:36.045Z,6.13
2023-04-02T22:14:37.637Z,6.57
2023-04-02T22:19:39.283Z,4.68
2023-04-02T22:24:41.037Z,5.07
2023-04-02T22:29:42.686Z,5.50
2023-04-02T22:34:45.737Z,4.18
2023-04-02T22:39:47.611Z,5.05
2023-04-02T22:44:49.408Z,3.85
2023-04-02T22:49:51.230Z,4.15
2023-04-02T22:54:53.078Z,5.18
2023-04-02T22:59:54.676Z,3.67
2023-04-02T23:04:56.336Z,4.35
2023-04-02T23:09:57.923Z,4.38
2023-04-02T23:15:00.674Z,4.97
2023-04-02T23:20:02.301Z,6.63
2023-04-02T23:25:05.813Z,4.65
2023-04-02T23:30:08.723Z,4.95
2023-04-02T23:35:10.324Z,4.18
2023-04-02T23:40:12.051Z,4.88
2023-04-02T23:45:14.065Z,4.38
2023-04-02T23:50:15.851Z,4.15
2023-04-02T23:55:17.439Z,5.13
